Time;durP1;ratioP1;P1;durP2;ratioP2;P2;SDS_P1;SDS_P2;PMS_P1;PMS_P2;Temp;Humidity;BMP_temperature;BMP_pressure;BME280_temperature;BME280_humidity;BME280_pressure;Samples;Min_cycle;Max_cycle;Signal;HPM_P1;HPM_P2
2024/02/28 00:01:47;;;;;;;;;;;;;;;;;;5094150;28;19908;-70
2024/02/28 00:04:13;;;;;;;;;;;;;;;;;;5094041;28;19908;-70
2024/02/28 00:06:39;;;;;;;;;;;;;;;;;;5094201;28;20429;-70
2024/02/28 00:09:06;;;;;;;;;;;;;;;;;;5093808;28;19912;-70
2024/02/28 00:11:32;;;;;;;;;;;;;;;;;;5093780;28;19908;-70
2024/02/28 00:14:00;;;;;;;;;;;;;;;;;;5094004;28;20140;-70
2024/02/28 00:16:26;;;;;;;;;;;;;;;;;;5094111;28;20387;-70
2024/02/28 00:18:52;;;;;;;;;;;;;;;;;;5093581;28;19925;-70
2024/02/28 00:21:18;;;;;;;;;;;;;;;;;;5094061;28;20433;-71
2024/02/28 00:23:44;;;;;;;;;;;;;;;;;;5093955;28;20249;-70
2024/02/28 00:26:10;;;;;;;;;;;;;;;;;;5093519;28;19909;-70
2024/02/28 00:28:36;;;;;;;;;;;;;;;;;;5075724;28;19916;-71
2024/02/28 00:31:02;;;;;;;;;;;;;;;;;;5093379;28;19962;-70
2024/02/28 00:33:28;;;;;;;;;;;;;;;;;;5093554;28;19924;-69
2024/02/28 00:35:54;;;;;;;;;;;;;;;;;;5093870;28;19958;-70
2024/02/28 00:38:20;;;;;;;;;;;;;;;;;;5093380;28;19947;-69
2024/02/28 00:40:46;;;;;;;;;;;;;;;;;;5093700;28;19912;-69
2024/02/28 00:43:12;;;;;;;;;;;;;;;;;;5094021;28;20387;-70
2024/02/28 00:45:38;;;;;;;;;;;;;;;;;;5093394;28;19912;-69
2024/02/28 00:48:04;;;;;;;;;;;;;;;;;;5093622;28;19908;-70
2024/02/28 00:50:30;;;;;;;;;;;;;;;;;;5093602;28;19908;-70
2024/02/28 00:52:56;;;;;;;;;;;;;;;;;;5093143;28;19935;-70
2024/02/28 00:55:22;;;;;;;;;;;;;;;;;;5094104;28;19916;-70
2024/02/28 00:57:48;;;;;;;;;;;;;;;;;;5079496;28;19909;-70
2024/02/28 01:00:14;;;;;;;;;;;;;;;;;;5097495;28;20375;-70
2024/02/28 01:02:41;;;;;;;;;;;;;;;;;;5097584;28;19908;-70
2024/02/28 01:05:07;;;;;;;;;;;;;;;;;;5097489;28;19919;-70
2024/02/28 01:07:33;;;;;;;;;;;;;;;;;;5096138;28;19908;-70
2024/02/28 01:09:59;;;;;;;;;;;;;;;;;;5097544;28;19908;-71
2024/02/28 01:12:25;;;;;;;;;;;;;;;;;;5096466;28;19916;-70
2024/02/28 01:14:51;;;;;;;;;;;;;;;;;;5097082;28;20325;-70
2024/02/28 01:17:17;;;;;;;;;;;;;;;;;;5097350;28;19916;-70
2024/02/28 01:19:43;;;;;;;;;;;;;;;;;;5079155;28;20050;-69
2024/02/28 01:22:09;;;;;;;;;;;;;;;;;;5096958;28;19953;-70
2024/02/28 01:24:35;;;;;;;;;;;;;;;;;;5097204;28;20339;-70
2024/02/28 01:27:01;;;;;;;;;;;;;;;;;;5097097;28;19915;-70
2024/02/28 01:29:27;;;;;;;;;;;;;;;;;;5096845;28;19986;-70
2024/02/28 01:31:53;;;;;;;;;;;;;;;;;;5097214;28;19908;-71
2024/02/28 01:34:19;;;;;;;;;;;;;;;;;;5096385;28;19920;-71
2024/02/28 01:36:45;;;;;;;;;;;;;;;;;;5096977;28;19912;-70
2024/02/28 01:39:11;;;;;;;;;;;;;;;;;;5096867;28;19919;-70
2024/02/28 01:41:37;;;;;;;;;;;;;;;;;;5096562;28;19908;-70
2024/02/28 01:44:03;;;;;;;;;;;;;;;;;;5097216;28;20364;-70
2024/02/28 01:46:29;;;;;;;;;;;;;;;;;;5096808;28;20279;-69
2024/02/28 01:48:55;;;;;;;;;;;;;;;;;;5096366;28;19908;-69
2024/02/28 01:51:21;;;;;;;;;;;;;;;;;;5096680;28;19934;-69
2024/02/28 01:53:47;;;;;;;;;;;;;;;;;;5096507;28;19920;-69
2024/02/28 01:56:13;;;;;;;;;;;;;;;;;;5096353;28;19908;-69
2024/02/28 01:58:39;;;;;;;;;;;;;;;;;;5096627;28;19914;-69
2024/02/28 02:01:06;;;;;;;;;;;;;;;;;;5096685;28;19909;-70
2024/02/28 02:03:34;;;;;;;;;;;;;;;;;;5096269;28;19908;-70
2024/02/28 02:06:00;;;;;;;;;;;;;;;;;;5096049;28;19944;-70
2024/02/28 02:08:26;;;;;;;;;;;;;;;;;;5096433;28;20429;-70
2024/02/28 02:10:52;;;;;;;;;;;;;;;;;;5095873;28;20368;-69
2024/02/28 02:13:18;;;;;;;;;;;;;;;;;;5096554;28;20279;-70
2024/02/28 02:15:43;;;;;;;;;;;;;;;;;;5096178;28;19916;-69
2024/02/28 02:18:09;;;;;;;;;;;;;;;;;;5095878;28;19914;-70
2024/02/28 02:20:35;;;;;;;;;;;;;;;;;;5095033;28;19909;-69
2024/02/28 02:23:01;;;;;;;;;;;;;;;;;;5096251;28;19908;-70
2024/02/28 02:25:27;;;;;;;;;;;;;;;;;;5095750;28;19915;-70
2024/02/28 02:27:53;;;;;;;;;;;;;;;;;;5094953;28;19908;-70
2024/02/28 02:30:19;;;;;;;;;;;;;;;;;;5096184;28;19915;-70
2024/02/28 02:32:45;;;;;;;;;;;;;;;;;;5076303;28;20382;-70
2024/02/28 02:35:11;;;;;;;;;;;;;;;;;;5095586;28;20294;-70
2024/02/28 02:37:37;;;;;;;;;;;;;;;;;;5095447;28;19912;-70
2024/02/28 02:40:03;;;;;;;;;;;;;;;;;;5095671;28;19956;-69
2024/02/28 02:42:29;;;;;;;;;;;;;;;;;;5095674;28;20371;-70
2024/02/28 02:44:55;;;;;;;;;;;;;;;;;;5095296;28;20275;-70
2024/02/28 02:47:21;;;;;;;;;;;;;;;;;;5095892;28;19908;-70
2024/02/28 02:49:47;;;;;;;;;;;;;;;;;;5095515;28;19969;-69
2024/02/28 02:52:13;;;;;;;;;;;;;;;;;;5095105;28;19908;-69
2024/02/28 02:54:39;;;;;;;;;;;;;;;;;;5095416;28;20382;-70
2024/02/28 02:57:05;;;;;;;;;;;;;;;;;;5077236;28;19931;-70
2024/02/28 02:59:31;;;;;;;;;;;;;;;;;;5093915;28;20382;-69
2024/02/28 03:01:57;;;;;;;;;;;;;;;;;;5095293;28;20416;-70
2024/02/28 03:04:22;;;;;;;;;;;;;;;;;;5095266;28;19935;-70
2024/02/28 03:06:48;;;;;;;;;;;;;;;;;;5094780;28;19924;-69
2024/02/28 03:09:14;;;;;;;;;;;;;;;;;;5095121;28;19908;-70
2024/02/28 03:11:40;;;;;;;;;;;;;;;;;;5095112;28;20007;-70
2024/02/28 03:14:06;;;;;;;;;;;;;;;;;;5094561;28;19961;-70
2024/02/28 03:16:32;;;;;;;;;;;;;;;;;;5094990;28;19951;-69
2024/02/28 03:18:58;;;;;;;;;;;;;;;;;;5094175;28;19915;-70
2024/02/28 03:21:24;;;;;;;;;;;;;;;;;;5094440;28;20273;-70
2024/02/28 03:23:50;;;;;;;;;;;;;;;;;;5094904;28;19908;-69
2024/02/28 03:26:16;;;;;;;;;;;;;;;;;;5094822;28;19938;-70
2024/02/28 03:28:42;;;;;;;;;;;;;;;;;;5094375;28;19908;-70
2024/02/28 03:31:08;;;;;;;;;;;;;;;;;;5094776;28;19915;-70
2024/02/28 03:33:35;;;;;;;;;;;;;;;;;;5094235;28;19920;-70
2024/02/28 03:36:01;;;;;;;;;;;;;;;;;;5094307;28;19951;-70
2024/02/28 03:38:27;;;;;;;;;;;;;;;;;;5094654;28;19955;-71
2024/02/28 03:40:52;;;;;;;;;;;;;;;;;;5094279;28;19908;-71
2024/02/28 03:43:18;;;;;;;;;;;;;;;;;;5094523;28;19938;-70
2024/02/28 03:45:44;;;;;;;;;;;;;;;;;;5094550;28;19908;-70
2024/02/28 03:48:10;;;;;;;;;;;;;;;;;;5075813;28;19915;-70
2024/02/28 03:50:37;;;;;;;;;;;;;;;;;;5094437;28;19912;-70
2024/02/28 03:53:03;;;;;;;;;;;;;;;;;;5094445;28;19960;-70
2024/02/28 03:55:29;;;;;;;;;;;;;;;;;;5093799;28;20014;-70
2024/02/28 03:57:55;;;;;;;;;;;;;;;;;;5094236;28;19908;-69
2024/02/28 04:00:21;;;;;;;;;;;;;;;;;;5075998;28;20413;-69
2024/02/28 04:02:47;;;;;;;;;;;;;;;;;;5093794;28;20272;-70
2024/02/28 04:05:13;;;;;;;;;;;;;;;;;;5094154;28;19915;-70
2024/02/28 04:07:39;;;;;;;;;;;;;;;;;;5094114;28;19912;-70
2024/02/28 04:10:05;;;;;;;;;;;;;;;;;;5093523;28;19990;-69
2024/02/28 04:12:31;;;;;;;;;;;;;;;;;;5093957;28;19908;-69
2024/02/28 04:14:57;;;;;;;;;;;;;;;;;;5093892;28;19968;-70
2024/02/28 04:17:23;;;;;;;;;;;;;;;;;;5093622;28;19912;-70
2024/02/28 04:19:49;;;;;;;;;;;;;;;;;;5094021;28;19915;-70
2024/02/28 04:22:15;;;;;;;;;;;;;;;;;;5093870;28;19908;-70
2024/02/28 04:24:40;;;;;;;;;;;;;;;;;;5093553;28;19915;-70
2024/02/28 04:27:09;;;;;;;;;;;;;;;;;;5093731;28;20349;-70
2024/02/28 04:29:35;;;;;;;;;;;;;;;;;;5093710;28;19948;-70
2024/02/28 04:32:01;;;;;;;;;;;;;;;;;;5093408;28;20330;-70
2024/02/28 04:34:27;;;;;;;;;;;;;;;;;;5093509;28;19925;-71
2024/02/28 04:36:53;;;;;;;;;;;;;;;;;;5093591;28;19909;-70
2024/02/28 04:39:19;;;;;;;;;;;;;;;;;;5093430;28;19908;-71
2024/02/28 04:41:45;;;;;;;;;;;;;;;;;;5093663;28;19962;-71
2024/02/28 04:44:11;;;;;;;;;;;;;;;;;;5093475;28;19954;-71
2024/02/28 04:46:37;;;;;;;;;;;;;;;;;;5092507;28;19915;-71
2024/02/28 04:49:03;;;;;;;;;;;;;;;;;;5092565;28;19912;-71
2024/02/28 04:51:29;;;;;;;;;;;;;;;;;;5093258;28;19908;-70
2024/02/28 04:53:55;;;;;;;;;;;;;;;;;;5093474;28;19912;-71
2024/02/28 04:56:21;;;;;;;;;;;;;;;;;;5093708;28;19919;-72
2024/02/28 04:58:47;;;;;;;;;;;;;;;;;;5093307;28;19991;-71
2024/02/28 05:01:12;;;;;;;;;;;;;;;;;;5093497;28;20279;-70
2024/02/28 05:03:38;;;;;;;;;;;;;;;;;;5093597;28;19909;-71
2024/02/28 05:06:04;;;;;;;;;;;;;;;;;;5075045;28;19931;-70
2024/02/28 05:08:30;;;;;;;;;;;;;;;;;;5075393;28;19914;-70
2024/02/28 05:10:56;;;;;;;;;;;;;;;;;;5093446;28;19919;-70
2024/02/28 05:13:24;;;;;;;;;;;;;;;;;;5093086;28;20253;-70
2024/02/28 05:15:50;;;;;;;;;;;;;;;;;;5093327;28;19969;-70
2024/02/28 05:18:16;;;;;;;;;;;;;;;;;;5092327;28;19912;-70
2024/02/28 05:20:42;;;;;;;;;;;;;;;;;;5092909;28;20007;-70
2024/02/28 05:23:08;;;;;;;;;;;;;;;;;;5093415;28;19908;-70
2024/02/28 05:25:34;;;;;;;;;;;;;;;;;;5092254;28;19938;-70
2024/02/28 05:28:00;;;;;;;;;;;;;;;;;;5091902;28;19994;-71
2024/02/28 05:30:26;;;;;;;;;;;;;;;;;;5092157;28;19912;-70
2024/02/28 05:32:52;;;;;;;;;;;;;;;;;;5093201;28;19915;-70
2024/02/28 05:35:18;;;;;;;;;;;;;;;;;;5074476;28;20014;-71
2024/02/28 05:37:44;;;;;;;;;;;;;;;;;;5093142;28;19909;-71
2024/02/28 05:40:12;;;;;;;;;;;;;;;;;;5093133;28;19958;-69
2024/02/28 05:42:39;;;;;;;;;;;;;;;;;;5095284;28;19916;-70
2024/02/28 05:45:05;;;;;;;;;;;;;;;;;;5078569;28;20328;-70
2024/02/28 05:47:31;;;;;;;;;;;;;;;;;;5096384;28;19915;-70
2024/02/28 05:49:58;;;;;;;;;;;;;;;;;;5097138;28;19908;-70
2024/02/28 05:52:25;;;;;;;;;;;;;;;;;;5096820;28;19915;-70
2024/02/28 05:54:51;;;;;;;;;;;;;;;;;;5096311;28;19920;-69
2024/02/28 05:57:16;;;;;;;;;;;;;;;;;;5096591;28;19954;-69
2024/02/28 05:59:42;;;;;;;;;;;;;;;;;;5096573;28;19912;-70
2024/02/28 06:02:08;;;;;;;;;;;;;;;;;;5096207;28;19909;-70
2024/02/28 06:04:34;;;;;;;;;;;;;;;;;;5096467;28;19965;-70
2024/02/28 06:07:01;;;;;;;;;;;;;;;;;;5096459;28;19908;-71
2024/02/28 06:09:30;;;;;;;;;;;;;;;;;;5077846;28;19961;-69
2024/02/28 06:11:56;;;;;;;;;;;;;;;;;;5096319;28;19912;-70
2024/02/28 06:14:22;;;;;;;;;;;;;;;;;;5096332;28;19924;-70
2024/02/28 06:16:48;;;;;;;;;;;;;;;;;;5077618;28;19908;-70
2024/02/28 06:19:13;;;;;;;;;;;;;;;;;;5096064;28;19916;-70
2024/02/28 06:21:39;;;;;;;;;;;;;;;;;;5077886;28;19908;-71
2024/02/28 06:24:05;;;;;;;;;;;;;;;;;;5095528;28;19908;-72
2024/02/28 06:26:31;;;;;;;;;;;;;;;;;;5092743;28;20212;-72
2024/02/28 06:29:01;;;;;;;;;;;;;;;;;;5095594;28;19915;-71
2024/02/28 06:31:29;;;;;;;;;;;;;;;;;;5094917;28;20399;-74
2024/02/28 06:33:55;;;;;;;;;;;;;;;;;;5095359;28;19920;-69
2024/02/28 06:36:21;;;;;;;;;;;;;;;;;;5094838;28;20277;-69
2024/02/28 06:38:47;;;;;;;;;;;;;;;;;;5089482;28;20318;-68
2024/02/28 06:41:13;;;;;;;;;;;;;;;;;;5090356;28;19977;-68
2024/02/28 06:43:39;;;;;;;;;;;;;;;;;;5089827;28;20368;-69
2024/02/28 06:46:05;;;;;;;;;;;;;;;;;;5086913;28;19908;-69
2024/02/28 06:48:31;;;;;;;;;;;;;;;;;;5090074;28;19908;-69
2024/02/28 06:50:57;;;;;;;;;;;;;;;;;;5091297;28;19916;-68
2024/02/28 06:53:23;;;;;;;;;;;;;;;;;;5091697;28;19957;-68
2024/02/28 06:55:49;;;;;;;;;;;;;;;;;;5089879;28;19920;-68
2024/02/28 06:58:15;;;;;;;;;;;;;;;;;;5072219;28;19912;-70
2024/02/28 07:00:41;;;;;;;;;;;;;;;;;;5091660;28;20003;-70
2024/02/28 07:03:07;;;;;;;;;;;;;;;;;;5091269;28;20019;-71
2024/02/28 07:05:36;;;;;;;;;;;;;;;;;;5090630;28;19919;-69
2024/02/28 07:08:02;;;;;;;;;;;;;;;;;;5089058;28;19912;-70
2024/02/28 07:10:28;;;;;;;;;;;;;;;;;;5067923;28;20404;-70
2024/02/28 07:12:54;;;;;;;;;;;;;;;;;;5087382;28;20283;-70
2024/02/28 07:15:21;;;;;;;;;;;;;;;;;;5087325;28;20038;-69
2024/02/28 07:17:47;;;;;;;;;;;;;;;;;;5093119;28;20353;-67
2024/02/28 07:20:13;;;;;;;;;;;;;;;;;;5093145;28;20000;-67
2024/02/28 07:22:39;;;;;;;;;;;;;;;;;;5094341;28;20276;-68
2024/02/28 07:25:05;;;;;;;;;;;;;;;;;;5093507;28;19953;-68
2024/02/28 07:27:31;;;;;;;;;;;;;;;;;;5093832;28;19923;-68
2024/02/28 07:29:57;;;;;;;;;;;;;;;;;;5090837;28;20430;-68
2024/02/28 07:32:23;;;;;;;;;;;;;;;;;;5094129;28;19912;-70
2024/02/28 07:34:49;;;;;;;;;;;;;;;;;;5087388;28;19974;-70
2024/02/28 07:37:15;;;;;;;;;;;;;;;;;;5093171;28;19920;-69
2024/02/28 07:39:41;;;;;;;;;;;;;;;;;;5083660;28;19999;-69
2024/02/28 07:42:07;;;;;;;;;;;;;;;;;;5078959;28;19958;-69
2024/02/28 07:44:32;;;;;;;;;;;;;;;;;;5091833;28;20627;-70
2024/02/28 07:46:58;;;;;;;;;;;;;;;;;;5093253;28;20471;-71
2024/02/28 07:49:24;;;;;;;;;;;;;;;;;;5075284;28;19916;-69
2024/02/28 07:51:50;;;;;;;;;;;;;;;;;;5092931;28;19912;-70
2024/02/28 07:54:16;;;;;;;;;;;;;;;;;;5093052;28;19928;-69
2024/02/28 07:56:44;;;;;;;;;;;;;;;;;;5092421;28;19919;-70
2024/02/28 07:59:10;;;;;;;;;;;;;;;;;;5087737;28;19916;-67
2024/02/28 08:01:39;;;;;;;;;;;;;;;;;;5095334;28;19957;-66
2024/02/28 08:04:05;;;;;;;;;;;;;;;;;;5072894;28;19913;-67
2024/02/28 08:06:33;;;;;;;;;;;;;;;;;;5054132;28;20330;-67
2024/02/28 08:08:59;;;;;;;;;;;;;;;;;;5066337;28;19916;-67
2024/02/28 08:11:25;;;;;;;;;;;;;;;;;;5101728;28;19912;-67
2024/02/28 08:13:52;;;;;;;;;;;;;;;;;;5073329;28;20376;-67
2024/02/28 08:16:19;;;;;;;;;;;;;;;;;;5090746;28;19915;-68
2024/02/28 08:18:45;;;;;;;;;;;;;;;;;;5081491;28;19912;-67
2024/02/28 08:21:11;;;;;;;;;;;;;;;;;;5111083;28;19908;-67
2024/02/28 08:23:37;;;;;;;;;;;;;;;;;;5096481;28;19938;-68
2024/02/28 08:26:03;;;;;;;;;;;;;;;;;;5091755;28;19908;-67
2024/02/28 08:28:29;;;;;;;;;;;;;;;;;;5073358;28;19998;-66
2024/02/28 08:30:55;;;;;;;;;;;;;;;;;;5078265;28;19919;-68
2024/02/28 08:33:21;;;;;;;;;;;;;;;;;;5084813;28;20000;-66
2024/02/28 08:35:49;;;;;;;;;;;;;;;;;;5082119;28;20015;-67
2024/02/28 08:38:15;;;;;;;;;;;;;;;;;;5072246;28;19932;-67
2024/02/28 08:40:41;;;;;;;;;;;;;;;;;;5092923;28;20356;-67
2024/02/28 08:43:07;;;;;;;;;;;;;;;;;;5091491;28;19947;-65
2024/02/28 08:45:33;;;;;;;;;;;;;;;;;;5091819;28;19916;-67
2024/02/28 08:48:01;;;;;;;;;;;;;;;;;;5082696;28;19948;-68
2024/02/28 08:50:27;;;;;;;;;;;;;;;;;;5089879;28;19920;-67
2024/02/28 08:52:53;;;;;;;;;;;;;;;;;;5090026;28;19908;-66
2024/02/28 08:55:21;;;;;;;;;;;;;;;;;;5069430;28;20309;-68
2024/02/28 08:57:47;;;;;;;;;;;;;;;;;;5091291;28;20275;-69
2024/02/28 09:00:13;;;;;;;;;;;;;;;;;;5091531;28;19923;-70
2024/02/28 09:02:39;;;;;;;;;;;;;;;;;;5085360;28;20360;-68
2024/02/28 09:05:05;;;;;;;;;;;;;;;;;;5084816;28;19919;-66
2024/02/28 09:07:35;;;;;;;;;;;;;;;;;;5070668;28;19966;-66
2024/02/28 09:10:01;;;;;;;;;;;;;;;;;;5086156;28;20065;-67
2024/02/28 09:14:38;;;;;;;;;;;;;;;;;;5084684;27;19998;-66
2024/02/28 09:17:04;;;;;;;;;;;;;;;;;;5062424;28;19916;-67
2024/02/28 09:19:30;;;;;;;;;;;;;;;;;;5054033;28;20391;-65
2024/02/28 09:21:56;;;;;;;;;;;;;;;;;;5059447;28;20269;-65
2024/02/28 09:24:44;;;;;;;;;;;;;;;;;;5089346;27;19920;-67
2024/02/28 09:27:10;;;;;;;;;;;;;;;;;;5088893;28;20004;-66
2024/02/28 09:29:36;;;;;;;;;;;;;;;;;;5089657;28;19948;-66
2024/02/28 09:32:04;;;;;;;;;;;;;;;;;;5083234;28;19954;-66
2024/02/28 09:34:31;;;;;;;;;;;;;;;;;;5074310;28;19913;-66
2024/02/28 09:36:57;;;;;;;;;;;;;;;;;;5064290;28;19920;-66
2024/02/28 09:39:23;;;;;;;;;;;;;;;;;;5063629;28;19912;-67
2024/02/28 09:41:49;;;;;;;;;;;;;;;;;;5076927;28;20416;-67
2024/02/28 09:44:15;;;;;;;;;;;;;;;;;;5070783;28;20023;-68
2024/02/28 09:47:16;;;;;;;;;;;;;;;;;;5119957;27;19917;-67
2024/02/28 09:51:00;;;;;;;;;;;;;;;;;;5088476;27;20380;-67
2024/02/28 09:53:26;;;;;;;;;;;;;;;;;;5070476;28;19923;-69
2024/02/28 09:56:52;;;;;;;;;;;;;;;;;;5089438;27;19916;-68
2024/02/28 09:59:18;;;;;;;;;;;;;;;;;;5089839;28;19919;-67
2024/02/28 10:08:34;;;;;;;;;;;;;;;;;;5109097;27;20286;-69
2024/02/28 10:13:41;;;;;;;;;;;;;;;;;;5081148;27;20289;-68
2024/02/28 10:16:40;;;;;;;;;;;;;;;;;;5089186;27;19920;-67
2024/02/28 10:19:06;;;;;;;;;;;;;;;;;;5064187;28;19920;-68
2024/02/28 10:21:54;;;;;;;;;;;;;;;;;;5087890;27;19924;-70
2024/02/28 10:24:20;;;;;;;;;;;;;;;;;;5087768;28;19919;-70
2024/02/28 10:26:57;;;;;;;;;;;;;;;;;;5085140;27;20691;-68
2024/02/28 10:29:24;;;;;;;;;;;;;;;;;;5088805;28;19917;-69
2024/02/28 10:32:58;;;;;;;;;;;;;;;;;;5108019;27;19916;-68
2024/02/28 10:36:57;;;;;;;;;;;;;;;;;;5087759;27;19918;-67
2024/02/28 10:39:23;;;;;;;;;;;;;;;;;;5088602;28;19916;-69
2024/02/28 10:43:23;;;;;;;;;;;;;;;;;;5089194;27;20464;-68
2024/02/28 10:48:20;;;;;;;;;;;;;;;;;;5086644;27;19931;-70
2024/02/28 10:50:47;;;;;;;;;;;;;;;;;;5078656;28;19971;-71
2024/02/28 10:53:13;;;;;;;;;;;;;;;;;;5089097;28;19960;-70
2024/02/28 10:58:05;;;;;;;;;;;;;;;;;;5112216;27;20466;-72
2024/02/28 11:00:31;;;;;;;;;;;;;;;;;;5113519;27;19981;-70
2024/02/28 11:02:58;;;;;;;;;;;;;;;;;;5106438;28;20368;-70
2024/02/28 11:05:24;;;;;;;;;;;;;;;;;;5117220;28;20374;-69
2024/02/28 11:07:50;;;;;;;;;;;;;;;;;;5115395;28;20197;-69
2024/02/28 11:10:15;;;;;;;;;;;;;;;;;;5105282;28;20531;-69
2024/02/28 11:12:41;;;;;;;;;;;;;;;;;;5108669;28;20148;-69
2024/02/28 11:15:08;;;;;;;;;;;;;;;;;;5112582;27;19918;-69
2024/02/28 11:17:34;;;;;;;;;;;;;;;;;;5108054;28;19930;-67
2024/02/28 11:20:00;;;;;;;;;;;;;;;;;;5118742;28;20010;-68
2024/02/28 11:22:26;;;;;;;;;;;;;;;;;;5121946;27;19916;-68
2024/02/28 11:24:52;;;;;;;;;;;;;;;;;;5108701;28;20374;-67
2024/02/28 11:27:18;;;;;;;;;;;;;;;;;;5102052;28;20010;-68
2024/02/28 11:29:46;;;;;;;;;;;;;;;;;;5115832;28;20376;-69
2024/02/28 11:32:13;;;;;;;;;;;;;;;;;;5123745;28;19923;-70
2024/02/28 11:34:40;;;;;;;;;;;;;;;;;;5126294;27;20394;-69
2024/02/28 11:37:06;;;;;;;;;;;;;;;;;;5125769;27;19997;-68
2024/02/28 11:39:32;;;;;;;;;;;;;;;;;;5126441;27;20018;-67
2024/02/28 11:41:58;;;;;;;;;;;;;;;;;;5118196;27;20446;-67
2024/02/28 11:44:24;;;;;;;;;;;;;;;;;;5109636;28;20006;-68
2024/02/28 11:46:50;;;;;;;;;;;;;;;;;;5111372;28;19960;-66
2024/02/28 11:49:16;;;;;;;;;;;;;;;;;;5113401;28;20329;-70
2024/02/28 11:51:42;;;;;;;;;;;;;;;;;;5103512;27;19916;-67
2024/02/28 11:54:10;;;;;;;;;;;;;;;;;;5111504;28;19960;-68
2024/02/28 11:56:36;;;;;;;;;;;;;;;;;;5107922;27;19959;-68
2024/02/28 11:59:04;;;;;;;;;;;;;;;;;;5116126;27;20407;-68
2024/02/28 12:01:30;;;;;;;;;;;;;;;;;;5104049;28;19912;-68
2024/02/28 12:03:55;;;;;;;;;;;;;;;;;;5106748;28;19912;-69
2024/02/28 12:06:21;;;;;;;;;;;;;;;;;;5114179;28;20014;-69
2024/02/28 12:08:47;;;;;;;;;;;;;;;;;;5100883;27;19973;-67
2024/02/28 12:11:13;;;;;;;;;;;;;;;;;;5110722;28;19912;-69
2024/02/28 12:13:40;;;;;;;;;;;;;;;;;;5094899;28;20292;-69
2024/02/28 12:16:05;;;;;;;;;;;;;;;;;;5111654;28;20271;-73
2024/02/28 12:18:33;;;;;;;;;;;;;;;;;;5100655;28;19920;-69
2024/02/28 12:20:59;;;;;;;;;;;;;;;;;;5096828;28;19934;-69
2024/02/28 12:23:25;;;;;;;;;;;;;;;;;;5105413;28;19916;-67
2024/02/28 12:25:51;;;;;;;;;;;;;;;;;;5087069;28;19993;-69
2024/02/28 12:28:17;;;;;;;;;;;;;;;;;;5097787;28;19976;-69
2024/02/28 12:30:43;;;;;;;;;;;;;;;;;;5104837;28;19912;-68
2024/02/28 12:33:11;;;;;;;;;;;;;;;;;;5097095;28;20405;-70
2024/02/28 12:35:37;;;;;;;;;;;;;;;;;;5106580;28;19952;-70
2024/02/28 12:38:03;;;;;;;;;;;;;;;;;;5111439;28;20037;-70
2024/02/28 12:40:29;;;;;;;;;;;;;;;;;;5095529;28;19978;-69
2024/02/28 12:42:55;;;;;;;;;;;;;;;;;;5095348;28;19986;-69
2024/02/28 12:45:21;;;;;;;;;;;;;;;;;;5094491;28;19912;-69
2024/02/28 12:47:47;;;;;;;;;;;;;;;;;;5093737;28;19912;-70
2024/02/28 12:50:12;;;;;;;;;;;;;;;;;;5109589;28;20655;-71
2024/02/28 12:52:38;;;;;;;;;;;;;;;;;;5098875;27;19974;-70
2024/02/28 12:55:05;;;;;;;;;;;;;;;;;;5095228;28;19915;-71
2024/02/28 12:57:31;;;;;;;;;;;;;;;;;;5095169;28;19924;-72
2024/02/28 12:59:57;;;;;;;;;;;;;;;;;;5100285;28;19937;-71
2024/02/28 13:02:23;;;;;;;;;;;;;;;;;;5096594;28;20382;-70
2024/02/28 13:04:49;;;;;;;;;;;;;;;;;;5107042;28;19965;-70
2024/02/28 13:07:15;;;;;;;;;;;;;;;;;;5093397;28;19912;-69
2024/02/28 13:09:41;;;;;;;;;;;;;;;;;;5099590;28;19916;-71
2024/02/28 13:12:10;;;;;;;;;;;;;;;;;;5094023;28;19912;-71
2024/02/28 13:14:36;;;;;;;;;;;;;;;;;;5096214;28;19912;-70
2024/02/28 13:17:03;;;;;;;;;;;;;;;;;;5093957;28;19920;-70
2024/02/28 13:19:29;;;;;;;;;;;;;;;;;;5103250;28;20299;-69
2024/02/28 13:21:56;;;;;;;;;;;;;;;;;;5104653;28;19916;-68
2024/02/28 13:24:21;;;;;;;;;;;;;;;;;;5108792;28;19912;-70
2024/02/28 13:26:47;;;;;;;;;;;;;;;;;;5109405;28;19960;-72
2024/02/28 13:29:13;;;;;;;;;;;;;;;;;;5112379;28;19912;-69
2024/02/28 13:31:39;;;;;;;;;;;;;;;;;;5103937;28;20368;-71
2024/02/28 13:34:05;;;;;;;;;;;;;;;;;;5095614;28;19935;-71
2024/02/28 13:36:33;;;;;;;;;;;;;;;;;;5108583;28;19916;-70
2024/02/28 13:38:59;;;;;;;;;;;;;;;;;;5102073;28;20009;-69
2024/02/28 13:41:26;;;;;;;;;;;;;;;;;;5082838;28;19955;-69
2024/02/28 13:43:52;;;;;;;;;;;;;;;;;;5085424;28;19950;-70
2024/02/28 13:46:19;;;;;;;;;;;;;;;;;;5089978;28;19962;-70
2024/02/28 13:48:45;;;;;;;;;;;;;;;;;;5091749;28;19912;-70
2024/02/28 13:51:11;;;;;;;;;;;;;;;;;;5093049;28;19955;-71
2024/02/28 13:53:37;;;;;;;;;;;;;;;;;;5091007;28;20475;-70
2024/02/28 13:56:03;;;;;;;;;;;;;;;;;;5091166;28;19977;-70
2024/02/28 13:58:29;;;;;;;;;;;;;;;;;;5090250;28;19915;-70
2024/02/28 14:00:55;;;;;;;;;;;;;;;;;;5090027;28;20555;-70
2024/02/28 14:03:23;;;;;;;;;;;;;;;;;;5089851;28;19915;-70
2024/02/28 14:05:49;;;;;;;;;;;;;;;;;;5089286;28;20319;-71
2024/02/28 14:08:15;;;;;;;;;;;;;;;;;;5090227;28;20102;-70
2024/02/28 14:10:42;;;;;;;;;;;;;;;;;;5092297;28;19915;-70
2024/02/28 14:13:08;;;;;;;;;;;;;;;;;;5090884;28;19934;-70
2024/02/28 14:15:36;;;;;;;;;;;;;;;;;;5092842;28;19911;-70
2024/02/28 14:18:03;;;;;;;;;;;;;;;;;;5092803;28;19920;-70
2024/02/28 14:20:29;;;;;;;;;;;;;;;;;;5093966;28;19908;-69
2024/02/28 14:22:56;;;;;;;;;;;;;;;;;;5092449;28;20345;-70
2024/02/28 14:25:25;;;;;;;;;;;;;;;;;;5094207;28;19939;-71
2024/02/28 14:27:54;;;;;;;;;;;;;;;;;;5093590;28;19961;-71
2024/02/28 14:30:20;;;;;;;;;;;;;;;;;;5093656;28;19912;-71
2024/02/28 14:32:48;;;;;;;;;;;;;;;;;;5093803;28;19951;-71
2024/02/28 14:35:14;;;;;;;;;;;;;;;;;;5093445;28;19908;-71
2024/02/28 14:37:40;;;;;;;;;;;;;;;;;;5093679;28;19959;-71
2024/02/28 14:40:09;;;;;;;;;;;;;;;;;;5093731;28;20384;-71
2024/02/28 14:42:35;;;;;;;;;;;;;;;;;;5092077;28;19953;-71
2024/02/28 14:45:01;;;;;;;;;;;;;;;;;;5093734;28;19946;-70
2024/02/28 14:47:27;;;;;;;;;;;;;;;;;;5093591;28;19915;-71
2024/02/28 14:49:53;;;;;;;;;;;;;;;;;;5093316;28;19908;-71
2024/02/28 14:52:19;;;;;;;;;;;;;;;;;;5092177;28;19908;-71
2024/02/28 14:54:46;;;;;;;;;;;;;;;;;;5093773;28;19909;-71
2024/02/28 14:57:12;;;;;;;;;;;;;;;;;;5092951;28;20007;-71
2024/02/28 14:59:38;;;;;;;;;;;;;;;;;;5093226;28;19971;-71
2024/02/28 15:02:04;;;;;;;;;;;;;;;;;;5092589;28;20264;-71
2024/02/28 15:04:30;;;;;;;;;;;;;;;;;;5092847;28;20014;-71
2024/02/28 15:06:56;;;;;;;;;;;;;;;;;;5093676;28;20390;-71
2024/02/28 15:09:22;;;;;;;;;;;;;;;;;;5092297;28;20317;-71
2024/02/28 15:11:48;;;;;;;;;;;;;;;;;;5091330;28;20011;-71
2024/02/28 15:14:14;;;;;;;;;;;;;;;;;;5091588;28;19999;-72
2024/02/28 15:16:40;;;;;;;;;;;;;;;;;;5092941;28;19934;-72
2024/02/28 15:19:06;;;;;;;;;;;;;;;;;;5093241;28;19908;-72
2024/02/28 15:21:32;;;;;;;;;;;;;;;;;;5094233;28;19908;-71
2024/02/28 15:23:58;;;;;;;;;;;;;;;;;;5093458;28;20368;-71
2024/02/28 15:26:24;;;;;;;;;;;;;;;;;;5092988;28;19961;-71
2024/02/28 15:28:50;;;;;;;;;;;;;;;;;;5093673;28;20019;-71
2024/02/28 15:31:16;;;;;;;;;;;;;;;;;;5091840;28;20003;-73
2024/02/28 15:33:42;;;;;;;;;;;;;;;;;;5090149;28;19908;-72
2024/02/28 15:36:09;;;;;;;;;;;;;;;;;;5091332;28;19916;-72
2024/02/28 15:38:35;;;;;;;;;;;;;;;;;;5091385;28;20005;-72
2024/02/28 15:41:01;;;;;;;;;;;;;;;;;;5091078;28;19920;-73
2024/02/28 15:43:27;;;;;;;;;;;;;;;;;;5093587;28;19912;-71
2024/02/28 15:45:54;;;;;;;;;;;;;;;;;;5094996;28;19998;-72
2024/02/28 15:48:20;;;;;;;;;;;;;;;;;;5097165;28;19918;-72
2024/02/28 15:50:48;;;;;;;;;;;;;;;;;;5096924;28;19912;-71
2024/02/28 15:53:14;;;;;;;;;;;;;;;;;;5096397;28;20423;-72
2024/02/28 15:55:40;;;;;;;;;;;;;;;;;;5095408;28;19912;-71
2024/02/28 15:58:06;;;;;;;;;;;;;;;;;;5094106;28;19916;-73
2024/02/28 16:00:31;;;;;;;;;;;;;;;;;;5094966;28;19908;-72
2024/02/28 16:02:58;;;;;;;;;;;;;;;;;;5095190;28;20364;-74
2024/02/28 16:05:26;;;;;;;;;;;;;;;;;;5093790;28;19908;-72
2024/02/28 16:07:52;;;;;;;;;;;;;;;;;;5094621;28;19908;-72
2024/02/28 16:10:18;;;;;;;;;;;;;;;;;;5096668;28;19908;-71
2024/02/28 16:12:44;;;;;;;;;;;;;;;;;;5096642;28;19908;-72
2024/02/28 16:15:10;;;;;;;;;;;;;;;;;;5094861;28;19961;-72
2024/02/28 16:17:36;;;;;;;;;;;;;;;;;;5096502;28;19969;-73
2024/02/28 16:20:03;;;;;;;;;;;;;;;;;;5096540;28;19912;-73
2024/02/28 16:22:29;;;;;;;;;;;;;;;;;;5094785;28;20318;-72
2024/02/28 16:24:55;;;;;;;;;;;;;;;;;;5096935;28;19999;-72
2024/02/28 16:27:21;;;;;;;;;;;;;;;;;;5096353;28;20356;-72
2024/02/28 16:29:47;;;;;;;;;;;;;;;;;;5096057;28;20334;-73
2024/02/28 16:32:13;;;;;;;;;;;;;;;;;;5096327;28;20386;-72
2024/02/28 16:34:40;;;;;;;;;;;;;;;;;;5096243;28;19990;-72
2024/02/28 16:37:06;;;;;;;;;;;;;;;;;;5096154;28;19947;-72
2024/02/28 16:39:32;;;;;;;;;;;;;;;;;;5096117;28;19915;-73
2024/02/28 16:41:58;;;;;;;;;;;;;;;;;;5094568;28;20365;-73
2024/02/28 16:44:24;;;;;;;;;;;;;;;;;;5096381;28;20023;-72
2024/02/28 16:46:50;;;;;;;;;;;;;;;;;;5094873;28;20400;-73
2024/02/28 16:49:16;;;;;;;;;;;;;;;;;;5095687;28;20326;-73
2024/02/28 16:51:42;;;;;;;;;;;;;;;;;;5095987;28;19908;-71
2024/02/28 16:54:08;;;;;;;;;;;;;;;;;;5095730;28;19908;-71
2024/02/28 16:56:34;;;;;;;;;;;;;;;;;;5095436;28;19952;-72
2024/02/28 16:59:01;;;;;;;;;;;;;;;;;;5096187;28;20343;-73
2024/02/28 17:01:27;;;;;;;;;;;;;;;;;;5095938;28;19908;-71
2024/02/28 17:03:53;;;;;;;;;;;;;;;;;;5095393;28;19908;-72